Date,TemperatureHighF,TemperatureAvgF,TemperatureLowF,DewpointHighF,DewpointAvgF,DewpointLowF,HumidityHigh,HumidityAvg,HumidityLow,PressureMaxIn,PressureMinIn,WindSpeedMaxMPH,WindSpeedAvgMPH,GustSpeedMaxMPH,PrecipitationSumIn
2013-7-1,78,69,63,54,50,47,73,53,37,0.00,40.00,10,8,17,0.07
2013-7-2,83,73,60,53,48,46,64,44,29,0.00,40.00,12,8,17,0.00
2013-7-3,87,73,59,55,51,47,75,50,25,0.00,40.00,17,14,26,0.00
2013-7-4,90,81,64,57,54,52,64,42,31,0.00,40.00,15,11,20,0.00
2013-7-5,79,75,68,65,63,61,77,67,58,0.00,40.00,14,10,17,0.00
2013-7-6,90,77,70,66,63,62,76,64,46,0.00,40.00,17,13,22,0.00
2013-7-7,75,70,68,67,66,66,93,87,77,0.00,40.00,12,9,14,0.00
2013-7-8,79,76,74,73,71,67,97,84,70,0.00,40.00,15,12,20,0.65
2013-7-9,82,72,60,72,61,58,100,72,47,0.00,40.00,24,13,46,0.26
2013-7-10,82,70,59,65,57,-100,96,69,52,0.00,40.00,15,10,21,0.00
2013-7-11,97,79,64,68,65,60,97,67,30,0.00,40.00,22,18,30,0.00
2013-7-12,93,81,72,70,66,64,76,62,44,0.00,40.00,25,17,35,0.00
2013-7-13,90,80,69,74,70,65,98,74,49,0.00,40.00,13,8,16,0.02
2013-7-14,77,72,68,75,70,65,100,94,85,0.00,40.00,17,12,32,1.50
2013-7-15,84,74,69,73,68,62,100,83,49,0.00,40.00,20,13,28,1.38
2013-7-16,85,81,70,65,64,63,81,58,50,0.00,40.00,21,16,29,0.00
2013-7-17,89,78,66,66,63,61,88,64,39,0.00,40.00,19,14,27,0.00
2013-7-18,96,83,70,71,65,60,74,57,38,0.00,40.00,17,11,22,0.00
2013-7-19,86,75,63,68,57,52,76,56,34,0.00,40.00,18,10,23,0.00
2013-7-20,81,70,63,66,60,-100,97,74,60,0.00,40.00,18,12,26,0.58
2013-7-21,84,71,57,67,61,54,96,72,53,0.00,40.00,16,8,23,0.30
2013-7-22,83,73,65,65,60,56,85,64,43,0.00,40.00,22,11,30,0.00
2013-7-23,77,67,57,61,58,55,95,75,54,0.00,40.00,13,10,24,0.00
2013-7-24,85,71,59,65,58,54,90,66,35,0.00,40.00,13,8,22,0.00
2013-7-25,84,70,62,62,59,54,90,69,43,0.00,40.00,16,10,24,0.19
2013-7-26,71,61,52,52,48,44,84,65,44,0.00,40.00,15,11,26,0.01
2013-7-27,72,62,50,49,45,41,77,56,34,0.00,40.00,11,6,14,0.00
2013-7-28,76,63,48,54,48,42,87,61,45,0.00,40.00,19,13,32,0.00
2013-7-29,73,65,60,63,58,52,97,77,67,0.00,40.00,17,13,23,0.00
2013-7-30,75,65,59,68,62,59,100,91,72,0.00,40.00,20,10,52,0.01
2013-7-31,78,64,60,64,61,59,100,92,53,0.00,40.00,9,6,18,0.12